sensor_id;sensor_type;location;lat;lon;timestamp;pressure;altitude;pressure_sealevel;temperature;humidity
28456;BME280;15682;56.742;38.866;2022-12-05T00:01:13;102440.00000000001;;;-12.2;91.1
28456;BME280;15682;56.742;38.866;2022-12-05T00:03:04;102440.00000000001;;;-12.1;91.0
28456;BME280;15682;56.742;38.866;2022-12-05T00:05:04;102440.00000000001;;;-12.1;90.3
28456;BME280;15682;56.742;38.866;2022-12-05T00:07:03;102440.00000000001;;;-12.2;90.3
28456;BME280;15682;56.742;38.866;2022-12-05T00:09:03;102440.00000000001;;;-12.2;90.3
28456;BME280;15682;56.742;38.866;2022-12-05T00:11:02;102430.0;;;-12.2;90.3
28456;BME280;15682;56.742;38.866;2022-12-05T00:13:02;102430.0;;;-12.2;90.4
28456;BME280;15682;56.742;38.866;2022-12-05T00:15:01;102430.0;;;-12.2;90.4
28456;BME280;15682;56.742;38.866;2022-12-05T00:17:01;102430.0;;;-12.2;90.9
28456;BME280;15682;56.742;38.866;2022-12-05T00:19:02;102430.0;;;-12.2;90.3
28456;BME280;15682;56.742;38.866;2022-12-05T00:21:00;102430.0;;;-12.2;90.3
28456;BME280;15682;56.742;38.866;2022-12-05T00:23:00;102420.0;;;-12.4;90.7
28456;BME280;15682;56.742;38.866;2022-12-05T00:24:59;102409.99999999999;;;-12.3;91.0
28456;BME280;15682;56.742;38.866;2022-12-05T00:26:59;102409.99999999999;;;-12.3;91.0
28456;BME280;15682;56.742;38.866;2022-12-05T00:28:59;102409.99999999999;;;-12.3;91.0
28456;BME280;15682;56.742;38.866;2022-12-05T00:31:01;102400.0;;;-12.4;91.0
28456;BME280;15682;56.742;38.866;2022-12-05T00:32:58;102400.0;;;-12.4;90.7
28456;BME280;15682;56.742;38.866;2022-12-05T00:34:58;102400.0;;;-12.4;90.7
28456;BME280;15682;56.742;38.866;2022-12-05T00:36:57;102400.0;;;-12.4;90.7
28456;BME280;15682;56.742;38.866;2022-12-05T00:38:59;102400.0;;;-12.4;90.7
28456;BME280;15682;56.742;38.866;2022-12-05T00:41:01;102400.0;;;-12.4;90.7
28456;BME280;15682;56.742;38.866;2022-12-05T00:42:56;102400.0;;;-12.4;91.0
28456;BME280;15682;56.742;38.866;2022-12-05T00:44:56;102400.0;;;-12.4;91.0
28456;BME280;15682;56.742;38.866;2022-12-05T00:46:56;102390.0;;;-12.4;91.6
28456;BME280;15682;56.742;38.866;2022-12-05T00:48:56;102390.0;;;-12.4;90.9
28456;BME280;15682;56.742;38.866;2022-12-05T00:50:59;102380.0;;;-12.4;90.9
28456;BME280;15682;56.742;38.866;2022-12-05T00:52:55;102380.0;;;-12.4;91.1
28456;BME280;15682;56.742;38.866;2022-12-05T00:54:54;102380.0;;;-12.4;91.1
28456;BME280;15682;56.742;38.866;2022-12-05T00:56:54;102380.0;;;-12.4;91.1
28456;BME280;15682;56.742;38.866;2022-12-05T00:58:55;102380.0;;;-12.4;91.1
28456;BME280;15682;56.742;38.866;2022-12-05T01:00:53;102370.0;;;-12.4;91.4
28456;BME280;15682;56.742;38.866;2022-12-05T01:02:54;102370.0;;;-12.4;91.7
28456;BME280;15682;56.742;38.866;2022-12-05T01:04:52;102370.0;;;-12.4;90.5
28456;BME280;15682;56.742;38.866;2022-12-05T01:06:54;102370.0;;;-12.3;91.1
28456;BME280;15682;56.742;38.866;2022-12-05T01:08:53;102370.0;;;-12.4;91.1
28456;BME280;15682;56.742;38.866;2022-12-05T01:10:53;102370.0;;;-12.4;91.1
28456;BME280;15682;56.742;38.866;2022-12-05T01:12:51;102370.0;;;-12.4;90.8
28456;BME280;15682;56.742;38.866;2022-12-05T01:14:51;102370.0;;;-12.4;90.8
28456;BME280;15682;56.742;38.866;2022-12-05T01:16:52;102370.0;;;-12.4;90.8
28456;BME280;15682;56.742;38.866;2022-12-05T01:18:50;102370.0;;;-12.4;90.5
28456;BME280;15682;56.742;38.866;2022-12-05T01:20:50;102360.0;;;-12.4;90.5
28456;BME280;15682;56.742;38.866;2022-12-05T01:22:50;102360.0;;;-12.5;90.8
28456;BME280;15682;56.742;38.866;2022-12-05T01:24:49;102360.0;;;-12.5;90.8
28456;BME280;15682;56.742;38.866;2022-12-05T01:26:49;102360.0;;;-12.5;90.8
28456;BME280;15682;56.742;38.866;2022-12-05T01:28:49;102350.0;;;-12.5;90.8
28456;BME280;15682;56.742;38.866;2022-12-05T01:30:49;102350.0;;;-12.5;90.8
28456;BME280;15682;56.742;38.866;2022-12-05T01:32:47;102350.0;;;-12.6;90.9
28456;BME280;15682;56.742;38.866;2022-12-05T01:34:47;102350.0;;;-12.6;91.1
28456;BME280;15682;56.742;38.866;2022-12-05T01:36:47;102340.0;;;-12.6;91.1
28456;BME280;15682;56.742;38.866;2022-12-05T01:38:47;102340.0;;;-12.6;91.1
28456;BME280;15682;56.742;38.866;2022-12-05T01:40:46;102340.0;;;-12.6;91.1
28456;BME280;15682;56.742;38.866;2022-12-05T01:42:46;102340.0;;;-12.5;90.7
28456;BME280;15682;56.742;38.866;2022-12-05T01:45:02;102340.0;;;-12.5;90.7
28456;BME280;15682;56.742;38.866;2022-12-05T01:46:47;102340.0;;;-12.5;90.7
28456;BME280;15682;56.742;38.866;2022-12-05T01:48:45;102340.0;;;-12.5;90.6
28456;BME280;15682;56.742;38.866;2022-12-05T01:50:45;102340.0;;;-12.7;90.6
28456;BME280;15682;56.742;38.866;2022-12-05T01:52:44;102340.0;;;-12.7;91.9
28456;BME280;15682;56.742;38.866;2022-12-05T01:54:45;102340.0;;;-12.7;91.3
28456;BME280;15682;56.742;38.866;2022-12-05T01:56:48;102340.0;;;-12.5;91.3
28456;BME280;15682;56.742;38.866;2022-12-05T01:58:43;102340.0;;;-12.5;91.3
28456;BME280;15682;56.742;38.866;2022-12-05T02:00:43;102330.0;;;-12.6;90.4
28456;BME280;15682;56.742;38.866;2022-12-05T02:02:47;102330.0;;;-12.6;91.1
28456;BME280;15682;56.742;38.866;2022-12-05T02:04:50;102330.0;;;-12.6;91.1
28456;BME280;15682;56.742;38.866;2022-12-05T02:06:41;102320.0;;;-12.6;90.5
28456;BME280;15682;56.742;38.866;2022-12-05T02:08:41;102320.0;;;-12.6;91.3
28456;BME280;15682;56.742;38.866;2022-12-05T02:10:43;102320.0;;;-12.6;91.6
28456;BME280;15682;56.742;38.866;2022-12-05T02:12:42;102320.0;;;-12.7;91.1
28456;BME280;15682;56.742;38.866;2022-12-05T02:14:44;102320.0;;;-12.7;91.7
28456;BME280;15682;56.742;38.866;2022-12-05T02:16:48;102320.0;;;-12.7;90.5
28456;BME280;15682;56.742;38.866;2022-12-05T02:18:47;102320.0;;;-12.7;90.5
28456;BME280;15682;56.742;38.866;2022-12-05T02:20:45;102320.0;;;-12.7;90.5
28456;BME280;15682;56.742;38.866;2022-12-05T02:22:53;102320.0;;;-12.7;90.8
28456;BME280;15682;56.742;38.866;2022-12-05T02:24:51;102320.0;;;-12.7;90.8
28456;BME280;15682;56.742;38.866;2022-12-05T02:26:55;102320.0;;;-12.6;91.1
28456;BME280;15682;56.742;38.866;2022-12-05T02:28:58;102320.0;;;-12.8;91.1
28456;BME280;15682;56.742;38.866;2022-12-05T02:30:39;102320.0;;;-12.8;91.1
28456;BME280;15682;56.742;38.866;2022-12-05T02:32:46;102310.0;;;-12.8;90.9
28456;BME280;15682;56.742;38.866;2022-12-05T02:34:44;102310.0;;;-12.6;90.9
28456;BME280;15682;56.742;38.866;2022-12-05T02:36:39;102310.0;;;-12.8;90.6
28456;BME280;15682;56.742;38.866;2022-12-05T02:38:39;102300.0;;;-12.8;90.8
28456;BME280;15682;56.742;38.866;2022-12-05T02:40:41;102300.0;;;-12.6;90.8
28456;BME280;15682;56.742;38.866;2022-12-05T02:42:40;102300.0;;;-12.7;90.4
28456;BME280;15682;56.742;38.866;2022-12-05T02:44:36;102300.0;;;-12.7;90.4
28456;BME280;15682;56.742;38.866;2022-12-05T02:46:36;102300.0;;;-12.7;90.4
28456;BME280;15682;56.742;38.866;2022-12-05T02:48:34;102290.0;;;-12.8;90.3
28456;BME280;15682;56.742;38.866;2022-12-05T02:50:36;102290.0;;;-12.8;90.9
28456;BME280;15682;56.742;38.866;2022-12-05T02:52:33;102290.0;;;-12.7;91.2
28456;BME280;15682;56.742;38.866;2022-12-05T02:54:36;102290.0;;;-12.6;91.2
28456;BME280;15682;56.742;38.866;2022-12-05T02:56:33;102280.0;;;-12.7;90.2
28456;BME280;15682;56.742;38.866;2022-12-05T02:58:35;102280.0;;;-12.7;90.8
28456;BME280;15682;56.742;38.866;2022-12-05T03:00:33;102280.0;;;-12.7;90.8
28456;BME280;15682;56.742;38.866;2022-12-05T03:02:33;102270.0;;;-12.7;90.6
28456;BME280;15682;56.742;38.866;2022-12-05T03:04:31;102270.0;;;-12.7;90.6
28456;BME280;15682;56.742;38.866;2022-12-05T03:06:35;102270.0;;;-12.7;90.6
28456;BME280;15682;56.742;38.866;2022-12-05T03:08:36;102270.0;;;-12.7;90.6
28456;BME280;15682;56.742;38.866;2022-12-05T03:10:31;102270.0;;;-12.7;90.3
28456;BME280;15682;56.742;38.866;2022-12-05T03:12:32;102260.0;;;-12.8;90.9
28456;BME280;15682;56.742;38.866;2022-12-05T03:14:31;102260.0;;;-12.8;90.3
28456;BME280;15682;56.742;38.866;2022-12-05T03:16:32;102260.0;;;-12.8;90.3
28456;BME280;15682;56.742;38.866;2022-12-05T03:18:30;102260.0;;;-12.8;91.0
28456;BME280;15682;56.742;38.866;2022-12-05T03:20:31;102260.0;;;-12.8;91.0
28456;BME280;15682;56.742;38.866;2022-12-05T03:22:31;102250.0;;;-12.8;90.9
28456;BME280;15682;56.742;38.866;2022-12-05T03:24:27;102240.0;;;-12.8;90.9
28456;BME280;15682;56.742;38.866;2022-12-05T03:26:35;102240.0;;;-12.8;90.3
28456;BME280;15682;56.742;38.866;2022-12-05T03:28:30;102240.0;;;-12.8;90.3
28456;BME280;15682;56.742;38.866;2022-12-05T03:30:26;102240.0;;;-12.8;91.5
28456;BME280;15682;56.742;38.866;2022-12-05T03:32:29;102240.0;;;-12.8;91.2
28456;BME280;15682;56.742;38.866;2022-12-05T03:34:35;102240.0;;;-12.8;90.5
28456;BME280;15682;56.742;38.866;2022-12-05T03:36:30;102240.0;;;-12.9;90.5
28456;BME280;15682;56.742;38.866;2022-12-05T03:38:29;102240.0;;;-12.9;90.4
28456;BME280;15682;56.742;38.866;2022-12-05T03:40:30;102240.0;;;-12.9;91.0
28456;BME280;15682;56.742;38.866;2022-12-05T03:42:30;102240.0;;;-12.9;91.2
28456;BME280;15682;56.742;38.866;2022-12-05T03:44:28;102240.0;;;-12.9;91.2
28456;BME280;15682;56.742;38.866;2022-12-05T03:46:26;102240.0;;;-12.9;91.2
28456;BME280;15682;56.742;38.866;2022-12-05T03:48:28;102230.0;;;-12.9;91.2
28456;BME280;15682;56.742;38.866;2022-12-05T03:50:24;102230.0;;;-12.9;91.2
28456;BME280;15682;56.742;38.866;2022-12-05T03:52:26;102230.0;;;-12.9;90.5
28456;BME280;15682;56.742;38.866;2022-12-05T03:54:24;102230.0;;;-12.9;91.2
28456;BME280;15682;56.742;38.866;2022-12-05T03:56:24;102230.0;;;-12.9;90.7
28456;BME280;15682;56.742;38.866;2022-12-05T03:58:26;102230.0;;;-12.9;90.7
28456;BME280;15682;56.742;38.866;2022-12-05T04:00:22;102230.0;;;-12.9;90.7
28456;BME280;15682;56.742;38.866;2022-12-05T04:02:23;102220.0;;;-13.0;91.0
28456;BME280;15682;56.742;38.866;2022-12-05T04:04:26;102220.0;;;-13.0;91.0
28456;BME280;15682;56.742;38.866;2022-12-05T04:06:24;102220.0;;;-13.0;91.0
28456;BME280;15682;56.742;38.866;2022-12-05T04:08:23;102210.0;;;-13.0;91.0
28456;BME280;15682;56.742;38.866;2022-12-05T04:10:22;102210.0;;;-13.0;91.0
28456;BME280;15682;56.742;38.866;2022-12-05T04:12:21;102220.0;;;-13.0;91.1
28456;BME280;15682;56.742;38.866;2022-12-05T04:14:22;102220.0;;;-13.0;91.1
28456;BME280;15682;56.742;38.866;2022-12-05T04:16:21;102220.0;;;-13.0;91.3
28456;BME280;15682;56.742;38.866;2022-12-05T04:18:18;102220.0;;;-12.9;91.3
28456;BME280;15682;56.742;38.866;2022-12-05T04:20:20;102220.0;;;-12.9;90.7
28456;BME280;15682;56.742;38.866;2022-12-05T04:22:17;102220.0;;;-13.0;90.6
28456;BME280;15682;56.742;38.866;2022-12-05T04:24:18;102220.0;;;-13.0;91.2
28456;BME280;15682;56.742;38.866;2022-12-05T04:26:22;102210.0;;;-13.0;91.2
28456;BME280;15682;56.742;38.866;2022-12-05T04:28:24;102210.0;;;-13.0;91.2
28456;BME280;15682;56.742;38.866;2022-12-05T04:30:17;102200.0;;;-13.0;91.2
28456;BME280;15682;56.742;38.866;2022-12-05T04:32:15;102190.0;;;-13.0;91.2
28456;BME280;15682;56.742;38.866;2022-12-05T04:34:14;102190.0;;;-13.2;90.7
28456;BME280;15682;56.742;38.866;2022-12-05T04:36:16;102190.0;;;-13.0;91.4
28456;BME280;15682;56.742;38.866;2022-12-05T04:38:18;102190.0;;;-13.0;91.4
28456;BME280;15682;56.742;38.866;2022-12-05T04:40:18;102180.0;;;-13.0;91.4
28456;BME280;15682;56.742;38.866;2022-12-05T04:42:16;102180.0;;;-13.1;91.8
28456;BME280;15682;56.742;38.866;2022-12-05T04:44:15;102180.0;;;-13.1;91.8
28456;BME280;15682;56.742;38.866;2022-12-05T04:46:14;102180.0;;;-13.1;91.8
28456;BME280;15682;56.742;38.866;2022-12-05T04:48:15;102180.0;;;-13.1;90.9
28456;BME280;15682;56.742;38.866;2022-12-05T04:50:13;102180.0;;;-13.1;90.8
28456;BME280;15682;56.742;38.866;2022-12-05T04:52:11;102180.0;;;-13.2;90.9
28456;BME280;15682;56.742;38.866;2022-12-05T04:54:14;102180.0;;;-13.2;90.9
28456;BME280;15682;56.742;38.866;2022-12-05T04:56:11;102180.0;;;-13.3;90.9
28456;BME280;15682;56.742;38.866;2022-12-05T04:58:12;102170.0;;;-13.3;90.9
28456;BME280;15682;56.742;38.866;2022-12-05T05:00:10;102170.0;;;-13.3;90.9
28456;BME280;15682;56.742;38.866;2022-12-05T05:02:12;102170.0;;;-13.3;91.2
28456;BME280;15682;56.742;38.866;2022-12-05T05:04:12;102170.0;;;-13.3;91.2
28456;BME280;15682;56.742;38.866;2022-12-05T05:06:10;102160.0;;;-13.3;91.2
28456;BME280;15682;56.742;38.866;2022-12-05T05:08:16;102160.0;;;-13.3;91.4
28456;BME280;15682;56.742;38.866;2022-12-05T05:10:08;102160.0;;;-13.3;91.3
28456;BME280;15682;56.742;38.866;2022-12-05T05:12:07;102160.0;;;-13.3;91.3
28456;BME280;15682;56.742;38.866;2022-12-05T05:14:07;102160.0;;;-13.3;91.2
28456;BME280;15682;56.742;38.866;2022-12-05T05:16:07;102160.0;;;-13.3;91.2
28456;BME280;15682;56.742;38.866;2022-12-05T05:18:07;102160.0;;;-13.3;91.2
28456;BME280;15682;56.742;38.866;2022-12-05T05:20:07;102160.0;;;-13.3;90.5
28456;BME280;15682;56.742;38.866;2022-12-05T05:22:05;102160.0;;;-13.2;90.5
28456;BME280;15682;56.742;38.866;2022-12-05T05:24:07;102160.0;;;-13.2;90.7
28456;BME280;15682;56.742;38.866;2022-12-05T05:26:04;102160.0;;;-13.2;90.7
28456;BME280;15682;56.742;38.866;2022-12-05T05:28:04;102160.0;;;-13.1;90.7
28456;BME280;15682;56.742;38.866;2022-12-05T05:30:05;102140.0;;;-13.2;90.7
28456;BME280;15682;56.742;38.866;2022-12-05T05:32:03;102140.0;;;-13.2;90.7
28456;BME280;15682;56.742;38.866;2022-12-05T05:34:04;102140.0;;;-13.2;90.9
28456;BME280;15682;56.742;38.866;2022-12-05T05:36:04;102140.0;;;-13.2;90.9
28456;BME280;15682;56.742;38.866;2022-12-05T05:38:02;102140.0;;;-13.2;90.9
28456;BME280;15682;56.742;38.866;2022-12-05T05:40:02;102140.0;;;-13.2;91.3
28456;BME280;15682;56.742;38.866;2022-12-05T05:42:01;102140.0;;;-13.2;90.7
28456;BME280;15682;56.742;38.866;2022-12-05T05:44:02;102140.0;;;-13.2;90.5
28456;BME280;15682;56.742;38.866;2022-12-05T05:46:02;102140.0;;;-13.1;90.7
28456;BME280;15682;56.742;38.866;2022-12-05T05:48:00;102140.0;;;-13.1;89.9
28456;BME280;15682;56.742;38.866;2022-12-05T05:50:00;102130.0;;;-13.1;89.9
28456;BME280;15682;56.742;38.866;2022-12-05T05:52:00;102130.0;;;-13.2;90.4
28456;BME280;15682;56.742;38.866;2022-12-05T05:53:59;102130.0;;;-13.2;90.6
28456;BME280;15682;56.742;38.866;2022-12-05T05:56:01;102130.0;;;-13.1;90.8
28456;BME280;15682;56.742;38.866;2022-12-05T05:57:58;102130.0;;;-13.1;90.2
28456;BME280;15682;56.742;38.866;2022-12-05T05:59:58;102130.0;;;-13.3;90.2
28456;BME280;15682;56.742;38.866;2022-12-05T06:01:58;102120.0;;;-13.2;90.1
28456;BME280;15682;56.742;38.866;2022-12-05T06:03:58;102120.0;;;-13.3;89.9
28456;BME280;15682;56.742;38.866;2022-12-05T06:05:58;102120.0;;;-13.3;89.9
28456;BME280;15682;56.742;38.866;2022-12-05T06:07:57;102120.0;;;-13.3;89.9
28456;BME280;15682;56.742;38.866;2022-12-05T06:09:56;102110.0;;;-13.3;89.9
28456;BME280;15682;56.742;38.866;2022-12-05T06:11:56;102110.0;;;-13.2;89.9
28456;BME280;15682;56.742;38.866;2022-12-05T06:13:57;102100.0;;;-13.2;89.8
28456;BME280;15682;56.742;38.866;2022-12-05T06:15:55;102100.0;;;-13.2;89.8
28456;BME280;15682;56.742;38.866;2022-12-05T06:17:55;102100.0;;;-13.2;89.8
28456;BME280;15682;56.742;38.866;2022-12-05T06:19:54;102100.0;;;-13.0;89.8
28456;BME280;15682;56.742;38.866;2022-12-05T06:21:54;102100.0;;;-13.0;89.8
28456;BME280;15682;56.742;38.866;2022-12-05T06:23:54;102100.0;;;-13.0;89.4
28456;BME280;15682;56.742;38.866;2022-12-05T06:25:55;102100.0;;;-13.0;89.4
28456;BME280;15682;56.742;38.866;2022-12-05T06:27:53;102100.0;;;-13.0;89.4
28456;BME280;15682;56.742;38.866;2022-12-05T06:29:53;102100.0;;;-12.9;89.4
28456;BME280;15682;56.742;38.866;2022-12-05T06:31:52;102110.0;;;-13.0;89.4
28456;BME280;15682;56.742;38.866;2022-12-05T06:33:52;102110.0;;;-13.0;89.0
28456;BME280;15682;56.742;38.866;2022-12-05T06:36:01;102110.0;;;-13.0;89.0
28456;BME280;15682;56.742;38.866;2022-12-05T06:37:51;102110.0;;;-13.0;88.9
28456;BME280;15682;56.742;38.866;2022-12-05T06:39:51;102110.0;;;-12.8;88.9
28456;BME280;15682;56.742;38.866;2022-12-05T06:41:51;102110.0;;;-12.6;88.9
28456;BME280;15682;56.742;38.866;2022-12-05T06:43:51;102110.0;;;-12.5;89.3
28456;BME280;15682;56.742;38.866;2022-12-05T06:45:50;102110.0;;;-12.5;89.3
28456;BME280;15682;56.742;38.866;2022-12-05T06:47:50;102110.0;;;-12.5;88.3
28456;BME280;15682;56.742;38.866;2022-12-05T06:49:49;102110.0;;;-12.4;88.3
28456;BME280;15682;56.742;38.866;2022-12-05T06:51:48;102110.0;;;-12.4;88.3
28456;BME280;15682;56.742;38.866;2022-12-05T06:53:48;102110.0;;;-12.3;88.4
28456;BME280;15682;56.742;38.866;2022-12-05T06:55:55;102110.0;;;-12.3;88.4
28456;BME280;15682;56.742;38.866;2022-12-05T06:57:47;102110.0;;;-12.3;88.4
28456;BME280;15682;56.742;38.866;2022-12-05T06:59:47;102110.0;;;-12.3;88.4
28456;BME280;15682;56.742;38.866;2022-12-05T07:01:47;102110.0;;;-12.2;88.4
28456;BME280;15682;56.742;38.866;2022-12-05T07:03:47;102110.0;;;-12.2;88.0
28456;BME280;15682;56.742;38.866;2022-12-05T07:05:46;102110.0;;;-12.2;88.0
28456;BME280;15682;56.742;38.866;2022-12-05T07:07:46;102110.0;;;-12.2;88.0
28456;BME280;15682;56.742;38.866;2022-12-05T07:09:45;102110.0;;;-12.2;88.0
28456;BME280;15682;56.742;38.866;2022-12-05T07:11:46;102100.0;;;-12.2;87.7
28456;BME280;15682;56.742;38.866;2022-12-05T07:13:45;102100.0;;;-12.2;88.3
28456;BME280;15682;56.742;38.866;2022-12-05T07:15:45;102100.0;;;-12.2;88.3
28456;BME280;15682;56.742;38.866;2022-12-05T07:17:44;102090.0;;;-12.0;88.3
28456;BME280;15682;56.742;38.866;2022-12-05T07:19:45;102090.0;;;-12.0;88.3
28456;BME280;15682;56.742;38.866;2022-12-05T07:21:43;102090.0;;;-12.0;88.3
28456;BME280;15682;56.742;38.866;2022-12-05T07:23:44;102090.0;;;-11.9;88.1
28456;BME280;15682;56.742;38.866;2022-12-05T07:25:43;102090.0;;;-11.8;88.1
28456;BME280;15682;56.742;38.866;2022-12-05T07:27:42;102090.0;;;-11.8;88.1
28456;BME280;15682;56.742;38.866;2022-12-05T07:29:42;102090.0;;;-11.8;87.3
28456;BME280;15682;56.742;38.866;2022-12-05T07:31:42;102090.0;;;-11.8;87.3
28456;BME280;15682;56.742;38.866;2022-12-05T07:33:41;102090.0;;;-11.9;87.2
28456;BME280;15682;56.742;38.866;2022-12-05T07:35:41;102090.0;;;-11.9;87.2
28456;BME280;15682;56.742;38.866;2022-12-05T07:37:41;102090.0;;;-11.8;87.2
28456;BME280;15682;56.742;38.866;2022-12-05T07:39:40;102090.0;;;-11.8;87.2
28456;BME280;15682;56.742;38.866;2022-12-05T07:41:40;102090.0;;;-11.8;87.2
28456;BME280;15682;56.742;38.866;2022-12-05T07:43:40;102080.0;;;-11.8;87.0
28456;BME280;15682;56.742;38.866;2022-12-05T07:45:39;102080.0;;;-11.9;87.0
28456;BME280;15682;56.742;38.866;2022-12-05T07:47:39;102080.0;;;-11.9;87.0
28456;BME280;15682;56.742;38.866;2022-12-05T07:49:39;102070.0;;;-11.9;86.8
28456;BME280;15682;56.742;38.866;2022-12-05T07:51:38;102070.0;;;-11.8;86.8
28456;BME280;15682;56.742;38.866;2022-12-05T07:53:38;102070.0;;;-11.8;87.1
28456;BME280;15682;56.742;38.866;2022-12-05T07:55:38;102060.0;;;-11.8;88.0
28456;BME280;15682;56.742;38.866;2022-12-05T07:57:37;102060.0;;;-11.6;87.8
28456;BME280;15682;56.742;38.866;2022-12-05T07:59:37;102060.0;;;-11.7;86.8
28456;BME280;15682;56.742;38.866;2022-12-05T08:01:37;102060.0;;;-11.7;86.8
28456;BME280;15682;56.742;38.866;2022-12-05T08:03:36;102060.0;;;-11.6;86.8
28456;BME280;15682;56.742;38.866;2022-12-05T08:05:36;102060.0;;;-11.6;86.8
28456;BME280;15682;56.742;38.866;2022-12-05T08:07:35;102060.0;;;-11.6;86.8
28456;BME280;15682;56.742;38.866;2022-12-05T08:09:35;102060.0;;;-11.4;86.2
28456;BME280;15682;56.742;38.866;2022-12-05T08:11:35;102060.0;;;-11.4;86.2
28456;BME280;15682;56.742;38.866;2022-12-05T08:13:35;102060.0;;;-11.4;85.9
28456;BME280;15682;56.742;38.866;2022-12-05T08:15:34;102060.0;;;-11.3;85.9
28456;BME280;15682;56.742;38.866;2022-12-05T08:17:34;102060.0;;;-11.3;85.9
28456;BME280;15682;56.742;38.866;2022-12-05T08:19:33;102060.0;;;-11.3;85.4
28456;BME280;15682;56.742;38.866;2022-12-05T08:21:34;102050.0;;;-11.3;85.4
28456;BME280;15682;56.742;38.866;2022-12-05T08:23:33;102050.0;;;-11.1;86.2
28456;BME280;15682;56.742;38.866;2022-12-05T08:25:33;102050.0;;;-11.0;85.6
28456;BME280;15682;56.742;38.866;2022-12-05T08:27:32;102050.0;;;-11.0;85.1
28456;BME280;15682;56.742;38.866;2022-12-05T08:29:32;102050.0;;;-11.2;84.4
28456;BME280;15682;56.742;38.866;2022-12-05T08:31:34;102050.0;;;-11.3;84.9
28456;BME280;15682;56.742;38.866;2022-12-05T08:33:31;102040.0;;;-11.3;85.5
28456;BME280;15682;56.742;38.866;2022-12-05T08:35:31;102040.0;;;-11.2;85.5
28456;BME280;15682;56.742;38.866;2022-12-05T08:37:31;102040.0;;;-11.2;85.0
28456;BME280;15682;56.742;38.866;2022-12-05T08:39:30;102040.0;;;-11.2;85.7
28456;BME280;15682;56.742;38.866;2022-12-05T08:41:31;102040.0;;;-11.2;85.7
28456;BME280;15682;56.742;38.866;2022-12-05T08:43:30;102040.0;;;-11.2;85.4
28456;BME280;15682;56.742;38.866;2022-12-05T08:45:29;102030.0;;;-11.2;85.4
28456;BME280;15682;56.742;38.866;2022-12-05T08:47:29;102030.0;;;-10.9;85.4
28456;BME280;15682;56.742;38.866;2022-12-05T08:49:29;102030.0;;;-10.9;84.7
28456;BME280;15682;56.742;38.866;2022-12-05T08:51:28;102030.0;;;-11.0;85.3
28456;BME280;15682;56.742;38.866;2022-12-05T08:53:28;102030.0;;;-11.1;84.8
28456;BME280;15682;56.742;38.866;2022-12-05T08:55:28;102030.0;;;-11.1;84.8
28456;BME280;15682;56.742;38.866;2022-12-05T08:57:27;102030.0;;;-11.0;84.8
28456;BME280;15682;56.742;38.866;2022-12-05T08:59:27;102020.0;;;-11.0;84.8
28456;BME280;15682;56.742;38.866;2022-12-05T09:01:27;102020.0;;;-10.7;84.8
28456;BME280;15682;56.742;38.866;2022-12-05T09:03:26;102020.0;;;-10.7;84.0
28456;BME280;15682;56.742;38.866;2022-12-05T09:05:26;102020.0;;;-10.7;84.0
28456;BME280;15682;56.742;38.866;2022-12-05T09:07:26;102020.0;;;-10.7;84.0
28456;BME280;15682;56.742;38.866;2022-12-05T09:09:25;102020.0;;;-10.5;84.9
28456;BME280;15682;56.742;38.866;2022-12-05T09:11:27;102020.0;;;-10.4;84.6
28456;BME280;15682;56.742;38.866;2022-12-05T09:13:25;102020.0;;;-10.5;83.5
28456;BME280;15682;56.742;38.866;2022-12-05T09:15:24;102020.0;;;-10.3;83.5
28456;BME280;15682;56.742;38.866;2022-12-05T09:17:24;102020.0;;;-10.3;83.5
28456;BME280;15682;56.742;38.866;2022-12-05T09:19:24;102020.0;;;-10.3;83.5
28456;BME280;15682;56.742;38.866;2022-12-05T09:21:25;102010.0;;;-10.4;83.5
28456;BME280;15682;56.742;38.866;2022-12-05T09:23:23;102010.0;;;-10.4;83.8
28456;BME280;15682;56.742;38.866;2022-12-05T09:25:23;102010.0;;;-10.6;83.8
28456;BME280;15682;56.742;38.866;2022-12-05T09:27:23;102010.0;;;-10.4;83.8
28456;BME280;15682;56.742;38.866;2022-12-05T09:29:22;102000.0;;;-10.4;83.8
28456;BME280;15682;56.742;38.866;2022-12-05T09:31:23;102000.0;;;-10.2;85.1
28456;BME280;15682;56.742;38.866;2022-12-05T09:33:22;102000.0;;;-10.2;83.4
28456;BME280;15682;56.742;38.866;2022-12-05T09:35:21;101990.0;;;-10.3;83.4
28456;BME280;15682;56.742;38.866;2022-12-05T09:37:21;101990.0;;;-10.3;83.4
28456;BME280;15682;56.742;38.866;2022-12-05T09:39:21;101990.0;;;-10.3;83.4
28456;BME280;15682;56.742;38.866;2022-12-05T09:41:32;101990.0;;;-10.4;83.4
28456;BME280;15682;56.742;38.866;2022-12-05T09:43:23;101980.0;;;-10.4;84.2
28456;BME280;15682;56.742;38.866;2022-12-05T09:45:23;101980.0;;;-10.4;83.7
28456;BME280;15682;56.742;38.866;2022-12-05T09:47:29;101980.0;;;-10.4;83.7
28456;BME280;15682;56.742;38.866;2022-12-05T09:49:20;101980.0;;;-10.4;83.7
28456;BME280;15682;56.742;38.866;2022-12-05T09:51:19;101970.0;;;-10.4;84.2
28456;BME280;15682;56.742;38.866;2022-12-05T09:53:24;101970.0;;;-10.4;84.3
28456;BME280;15682;56.742;38.866;2022-12-05T09:55:19;101970.0;;;-10.4;83.6
28456;BME280;15682;56.742;38.866;2022-12-05T09:57:25;101970.0;;;-10.4;83.6
28456;BME280;15682;56.742;38.866;2022-12-05T09:59:19;101950.0;;;-10.4;83.6
28456;BME280;15682;56.742;38.866;2022-12-05T10:01:26;101950.0;;;-10.2;84.7
28456;BME280;15682;56.742;38.866;2022-12-05T10:03:23;101950.0;;;-10.2;83.7
28456;BME280;15682;56.742;38.866;2022-12-05T10:05:20;101950.0;;;-10.2;83.7
28456;BME280;15682;56.742;38.866;2022-12-05T10:07:21;101950.0;;;-10.3;83.7
28456;BME280;15682;56.742;38.866;2022-12-05T10:09:33;101950.0;;;-10.3;84.3
28456;BME280;15682;56.742;38.866;2022-12-05T10:11:20;101950.0;;;-10.1;85.0
28456;BME280;15682;56.742;38.866;2022-12-05T10:13:24;101950.0;;;-10.1;84.0
28456;BME280;15682;56.742;38.866;2022-12-05T10:15:21;101940.0;;;-10.1;84.0
28456;BME280;15682;56.742;38.866;2022-12-05T10:17:21;101940.0;;;-10.0;84.0
28456;BME280;15682;56.742;38.866;2022-12-05T10:19:18;101940.0;;;-10.0;84.0
28456;BME280;15682;56.742;38.866;2022-12-05T10:21:19;101930.0;;;-10.2;84.0
28456;BME280;15682;56.742;38.866;2022-12-05T10:23:17;101930.0;;;-10.3;84.6
28456;BME280;15682;56.742;38.866;2022-12-05T10:25:17;101930.0;;;-10.3;85.2
28456;BME280;15682;56.742;38.866;2022-12-05T10:27:18;101930.0;;;-10.3;85.2
28456;BME280;15682;56.742;38.866;2022-12-05T10:29:22;101920.0;;;-10.3;84.6
28456;BME280;15682;56.742;38.866;2022-12-05T10:31:16;101920.0;;;-10.3;84.6